Pagina principale
METAR-TAF:

METAR-TAF

Aeroporti :

Aeroporto di Zagabria-Franjo Tuđman

Zagabria, Croazia

latitudine: 45-44N, longitudine: 016-04E, altezza: 106 m

Osservazione

Il bollettino è stato emesso 13 minuti fa, alle 21:00 UTC
Vento 2 kt da sud/sud-ovest
Temperature 18°C
Umidità 88%
Pressione 1015 hPa
Visibilità 10 km o più
nessuna nube inferiore a 1500 m e nessun cumulonembo

METAR: LDZA 162100Z 21002KT CAVOK 18/16 Q1015 NOSIG

Ora: 23:13 (21:13 UTC)

Previsione

Il bollettino è stato emesso 3 ore e 48 minuti fa, alle 17:25 UTC
Previsione valida dal 16 alle 18 UTC al 17 alle 18 UTC
Vento 2 kt da direzioni variabili
Visibilità 10 km o più
nessuna nube inferiore a 1500 m e nessun cumulonembo
Probabilità 30% :
Temporaneamente
dal 17 alle 01 UTC al 17 alle 07 UTC
Visibilità: 1500 m
banchi di nebbia

TAF: LDZA 161725Z 1618/1718 VRB02KT CAVOK TX27/1713Z TN13/1704Z PROB30 TEMPO 1701/1707 1500 BCFG

Osservazioni e previsioni meteorologiche di più di 4000 aeroporti (messaggi METAR e TAF).

Le stazioni disponibili sono rappresentate dai dischi gialli e rossi sulla carta.

Puntare il mouse per vedere il nome della stazione.

Clicca sopra per visualizzare le osservazioni e previsioni meteorologiche.

Per cambiare la mappa : fare clic sui pulsanti verdi con una croce nera per ingrandire, il pulsante verde con un trattino per diminuire, o sulla freccia verde per le mappe adiacenti.


METAR-TAF: